Terminal Aerodrome Forecast
Issued by NWS

Home | Current Version | Previous Version | Text Only | Print | Product List | Glossary On
Versions: 1 2 3 4 5 6 7 8 9 10 11 12 13 14 15 16 17 18 19 20
296
FTUS45 KABQ 232325
TAFLVS
TAF
KLVS 232325Z 2400/2424 23020G30KT P6SM SKC
     FM240600 20015G25KT P6SM SCT250
     FM241500 24025G35KT P6SM FEW250
     FM241800 25030G43KT P6SM SCT250=

USA.gov is the U.S. government's official web portal to all federal, state and local government web resources and services.